createdAt,value
2022-08-05T05:52:50.210Z,58.65
2022-08-05T05:55:20.442Z,58.89
2022-08-05T05:57:52.914Z,58.42
2022-08-05T06:00:31.309Z,58.33
2022-08-05T06:03:03.471Z,58.66
2022-08-05T06:05:54.118Z,58.52
2022-08-05T06:08:32.663Z,58.07
2022-08-05T06:11:04.039Z,57.77
2022-08-05T06:13:40.782Z,57.46
2022-08-05T06:16:29.971Z,57.47
2022-08-05T06:19:01.856Z,57.07
2022-08-05T06:21:37.367Z,57.41
2022-08-05T06:24:11.560Z,57.17
2022-08-05T06:26:51.213Z,57.24
2022-08-05T06:29:43.234Z,57.57
2022-08-05T06:32:26.329Z,57.61
2022-08-05T06:34:59.329Z,57.28
2022-08-05T06:37:55.547Z,56.93
2022-08-05T06:40:27.873Z,57.11
2022-08-05T06:43:02.121Z,57.23
2022-08-05T06:46:02.972Z,57.48
2022-08-05T06:48:53.113Z,57.43
2022-08-05T06:51:21.850Z,56.99
2022-08-05T06:53:56.347Z,56.44
2022-08-05T06:56:27.467Z,56.16
2022-08-05T06:58:57.248Z,56.23
2022-08-05T07:01:32.383Z,55.63
2022-08-05T07:04:03.386Z,55.96
2022-08-05T07:06:32.687Z,56.26
2022-08-05T07:09:03.871Z,55.70
2022-08-05T07:11:36.995Z,54.78
2022-08-05T07:14:29.631Z,54.76
2022-08-05T07:18:00.226Z,54.89
2022-08-05T07:22:44.228Z,54.67
2022-08-05T07:25:22.432Z,54.86
2022-08-05T07:28:11.498Z,54.90
2022-08-05T07:30:41.489Z,54.14
2022-08-05T07:33:16.216Z,54.02
2022-08-05T07:36:03.520Z,53.18
2022-08-05T07:38:43.561Z,54.09
2022-08-05T07:42:08.074Z,54.57
2022-08-05T07:44:14.282Z,54.51
2022-08-05T07:46:49.840Z,54.67
2022-08-05T07:49:20.866Z,54.42
2022-08-05T07:51:53.734Z,54.40
2022-08-05T07:54:30.884Z,54.38
2022-08-05T07:57:14.584Z,53.97
2022-08-05T07:59:54.503Z,53.90
2022-08-05T08:02:31.468Z,53.93
2022-08-05T08:05:18.693Z,53.59
2022-08-05T08:07:59.566Z,53.77
2022-08-05T08:10:33.924Z,53.97
2022-08-05T08:13:06.065Z,53.89
2022-08-05T08:16:33.421Z,53.91
2022-08-05T08:18:26.262Z,53.10
2022-08-05T08:21:02.295Z,52.64
2022-08-05T08:24:01.768Z,52.94
2022-08-05T08:26:26.691Z,52.12
2022-08-05T08:29:22.220Z,52.07
2022-08-05T08:31:51.202Z,51.97
2022-08-05T08:34:30.358Z,51.71
2022-08-05T08:37:04.929Z,51.72
2022-08-05T08:39:37.474Z,51.79
2022-08-05T08:42:22.479Z,51.37
2022-08-05T08:45:18.466Z,50.86
2022-08-05T08:48:07.157Z,51.50
2022-08-05T08:51:03.208Z,51.08
2022-08-05T08:53:45.011Z,49.34
2022-08-05T08:56:15.675Z,50.46
2022-08-05T08:58:47.513Z,49.63
2022-08-05T09:01:19.017Z,50.19
2022-08-05T09:03:55.549Z,49.98
2022-08-05T09:06:29.711Z,48.49
2022-08-05T09:09:01.532Z,46.90
2022-08-05T09:11:50.806Z,46.28
2022-08-05T09:14:57.860Z,45.35
2022-08-05T09:17:41.200Z,43.74
2022-08-05T09:20:12.786Z,43.25
2022-08-05T09:23:19.636Z,41.99
2022-08-05T09:26:02.659Z,42.26
2022-08-05T09:28:34.936Z,41.19
2022-08-05T09:32:08.522Z,40.80
2022-08-05T09:33:59.151Z,40.63
2022-08-05T09:36:55.107Z,37.98
2022-08-05T09:39:39.380Z,39.89
